sensor_id;sensor_type;location;lat;lon;timestamp;P1;durP1;ratioP1;P2;durP2;ratioP2
23250;SDS011;11794;49.730;10.088;2023-09-18T00:02:18;7.22;;;2.90;;
23250;SDS011;11794;49.730;10.088;2023-09-18T00:04:44;6.27;;;2.60;;
23250;SDS011;11794;49.730;10.088;2023-09-18T00:07:09;6.23;;;2.50;;
23250;SDS011;11794;49.730;10.088;2023-09-18T00:09:35;6.50;;;2.90;;
23250;SDS011;11794;49.730;10.088;2023-09-18T00:12:01;5.80;;;2.70;;
23250;SDS011;11794;49.730;10.088;2023-09-18T00:14:27;6.10;;;2.57;;
23250;SDS011;11794;49.730;10.088;2023-09-18T00:16:52;5.55;;;2.53;;
23250;SDS011;11794;49.730;10.088;2023-09-18T00:19:18;6.90;;;2.77;;
23250;SDS011;11794;49.730;10.088;2023-09-18T00:21:43;6.27;;;3.20;;
23250;SDS011;11794;49.730;10.088;2023-09-18T00:24:09;6.80;;;2.90;;
23250;SDS011;11794;49.730;10.088;2023-09-18T00:26:36;6.43;;;2.60;;
23250;SDS011;11794;49.730;10.088;2023-09-18T00:29:02;6.93;;;2.97;;
23250;SDS011;11794;49.730;10.088;2023-09-18T00:31:27;6.88;;;2.67;;
23250;SDS011;11794;49.730;10.088;2023-09-18T00:33:53;6.40;;;2.87;;
23250;SDS011;11794;49.730;10.088;2023-09-18T00:36:18;8.70;;;2.90;;
23250;SDS011;11794;49.730;10.088;2023-09-18T00:38:44;6.32;;;3.00;;
23250;SDS011;11794;49.730;10.088;2023-09-18T00:41:09;6.63;;;2.70;;
23250;SDS011;11794;49.730;10.088;2023-09-18T00:43:35;6.50;;;2.27;;
23250;SDS011;11794;49.730;10.088;2023-09-18T00:46:00;6.80;;;2.88;;
23250;SDS011;11794;49.730;10.088;2023-09-18T00:48:26;5.80;;;2.43;;
23250;SDS011;11794;49.730;10.088;2023-09-18T00:50:53;6.43;;;3.00;;
23250;SDS011;11794;49.730;10.088;2023-09-18T00:53:20;7.50;;;2.85;;
23250;SDS011;11794;49.730;10.088;2023-09-18T00:55:48;7.03;;;3.05;;
23250;SDS011;11794;49.730;10.088;2023-09-18T00:58:17;8.20;;;3.22;;
23250;SDS011;11794;49.730;10.088;2023-09-18T01:00:43;6.37;;;3.00;;
23250;SDS011;11794;49.730;10.088;2023-09-18T01:03:09;8.30;;;3.17;;
23250;SDS011;11794;49.730;10.088;2023-09-18T01:05:34;6.80;;;2.70;;
23250;SDS011;11794;49.730;10.088;2023-09-18T01:08:01;8.20;;;2.90;;
23250;SDS011;11794;49.730;10.088;2023-09-18T01:10:29;6.87;;;2.93;;
23250;SDS011;11794;49.730;10.088;2023-09-18T01:13:04;8.93;;;3.10;;
23250;SDS011;11794;49.730;10.088;2023-09-18T01:15:44;7.95;;;2.72;;
23250;SDS011;11794;49.730;10.088;2023-09-18T01:18:16;7.97;;;2.90;;
23250;SDS011;11794;49.730;10.088;2023-09-18T01:20:43;7.15;;;3.00;;
23250;SDS011;11794;49.730;10.088;2023-09-18T01:23:09;6.00;;;2.28;;
23250;SDS011;11794;49.730;10.088;2023-09-18T01:25:36;6.50;;;2.83;;
23250;SDS011;11794;49.730;10.088;2023-09-18T01:28:02;7.50;;;2.70;;
23250;SDS011;11794;49.730;10.088;2023-09-18T01:30:28;7.65;;;2.80;;
23250;SDS011;11794;49.730;10.088;2023-09-18T01:32:54;7.37;;;3.00;;
23250;SDS011;11794;49.730;10.088;2023-09-18T01:35:21;6.93;;;2.78;;
23250;SDS011;11794;49.730;10.088;2023-09-18T01:37:54;6.38;;;2.63;;
23250;SDS011;11794;49.730;10.088;2023-09-18T01:40:24;7.70;;;2.88;;
23250;SDS011;11794;49.730;10.088;2023-09-18T01:42:50;8.13;;;2.90;;
23250;SDS011;11794;49.730;10.088;2023-09-18T01:45:16;6.50;;;2.70;;
23250;SDS011;11794;49.730;10.088;2023-09-18T01:47:41;7.40;;;2.92;;
23250;SDS011;11794;49.730;10.088;2023-09-18T01:50:07;8.00;;;3.33;;
23250;SDS011;11794;49.730;10.088;2023-09-18T01:52:33;8.13;;;3.45;;
23250;SDS011;11794;49.730;10.088;2023-09-18T01:55:01;8.00;;;3.40;;
23250;SDS011;11794;49.730;10.088;2023-09-18T01:57:30;8.82;;;3.13;;
23250;SDS011;11794;49.730;10.088;2023-09-18T01:59:56;6.93;;;3.20;;
23250;SDS011;11794;49.730;10.088;2023-09-18T02:02:22;7.70;;;3.25;;
23250;SDS011;11794;49.730;10.088;2023-09-18T02:04:47;6.80;;;3.00;;
23250;SDS011;11794;49.730;10.088;2023-09-18T02:07:13;6.03;;;2.70;;
23250;SDS011;11794;49.730;10.088;2023-09-18T02:09:39;6.73;;;2.67;;
23250;SDS011;11794;49.730;10.088;2023-09-18T02:12:04;7.30;;;2.63;;
23250;SDS011;11794;49.730;10.088;2023-09-18T02:14:31;6.97;;;3.05;;
23250;SDS011;11794;49.730;10.088;2023-09-18T02:16:56;7.60;;;2.97;;
23250;SDS011;11794;49.730;10.088;2023-09-18T02:19:22;7.55;;;2.85;;
23250;SDS011;11794;49.730;10.088;2023-09-18T02:21:48;6.20;;;2.70;;
23250;SDS011;11794;49.730;10.088;2023-09-18T02:24:13;8.60;;;3.87;;
23250;SDS011;11794;49.730;10.088;2023-09-18T02:26:39;7.67;;;3.37;;
23250;SDS011;11794;49.730;10.088;2023-09-18T02:29:08;8.32;;;3.03;;
23250;SDS011;11794;49.730;10.088;2023-09-18T02:31:36;6.60;;;2.95;;
23250;SDS011;11794;49.730;10.088;2023-09-18T02:34:01;7.33;;;3.20;;
23250;SDS011;11794;49.730;10.088;2023-09-18T02:36:27;8.27;;;2.97;;
23250;SDS011;11794;49.730;10.088;2023-09-18T02:38:53;6.37;;;2.87;;
23250;SDS011;11794;49.730;10.088;2023-09-18T02:41:18;7.37;;;3.07;;
23250;SDS011;11794;49.730;10.088;2023-09-18T02:43:44;7.13;;;3.17;;
23250;SDS011;11794;49.730;10.088;2023-09-18T02:46:09;8.67;;;2.73;;
23250;SDS011;11794;49.730;10.088;2023-09-18T02:48:35;8.63;;;2.80;;
23250;SDS011;11794;49.730;10.088;2023-09-18T02:51:00;6.32;;;2.70;;
23250;SDS011;11794;49.730;10.088;2023-09-18T02:53:27;7.72;;;3.10;;
23250;SDS011;11794;49.730;10.088;2023-09-18T02:55:54;6.67;;;3.43;;
23250;SDS011;11794;49.730;10.088;2023-09-18T02:58:21;7.50;;;2.95;;
23250;SDS011;11794;49.730;10.088;2023-09-18T03:00:48;6.45;;;2.72;;
23250;SDS011;11794;49.730;10.088;2023-09-18T03:03:15;8.35;;;3.00;;
23250;SDS011;11794;49.730;10.088;2023-09-18T03:05:42;7.75;;;2.90;;
23250;SDS011;11794;49.730;10.088;2023-09-18T03:08:09;7.13;;;3.00;;
23250;SDS011;11794;49.730;10.088;2023-09-18T03:10:36;7.28;;;3.13;;
23250;SDS011;11794;49.730;10.088;2023-09-18T03:13:04;7.33;;;2.60;;
23250;SDS011;11794;49.730;10.088;2023-09-18T03:15:31;7.67;;;2.90;;
23250;SDS011;11794;49.730;10.088;2023-09-18T03:17:57;6.35;;;2.70;;
23250;SDS011;11794;49.730;10.088;2023-09-18T03:20:24;6.78;;;2.97;;
23250;SDS011;11794;49.730;10.088;2023-09-18T03:22:51;6.97;;;2.83;;
23250;SDS011;11794;49.730;10.088;2023-09-18T03:25:18;8.32;;;3.20;;
23250;SDS011;11794;49.730;10.088;2023-09-18T03:27:44;9.13;;;3.83;;
23250;SDS011;11794;49.730;10.088;2023-09-18T03:30:09;7.45;;;3.30;;
23250;SDS011;11794;49.730;10.088;2023-09-18T03:32:37;7.38;;;3.13;;
23250;SDS011;11794;49.730;10.088;2023-09-18T03:35:03;7.47;;;3.00;;
23250;SDS011;11794;49.730;10.088;2023-09-18T03:37:29;8.32;;;3.00;;
23250;SDS011;11794;49.730;10.088;2023-09-18T03:39:55;6.90;;;3.13;;
23250;SDS011;11794;49.730;10.088;2023-09-18T03:42:20;7.17;;;3.03;;
23250;SDS011;11794;49.730;10.088;2023-09-18T03:44:46;9.27;;;3.50;;
23250;SDS011;11794;49.730;10.088;2023-09-18T03:47:11;8.63;;;3.40;;
23250;SDS011;11794;49.730;10.088;2023-09-18T03:49:37;7.70;;;2.60;;
23250;SDS011;11794;49.730;10.088;2023-09-18T03:52:03;8.27;;;3.00;;
23250;SDS011;11794;49.730;10.088;2023-09-18T03:54:28;8.50;;;3.40;;
23250;SDS011;11794;49.730;10.088;2023-09-18T03:56:54;8.02;;;3.28;;
23250;SDS011;11794;49.730;10.088;2023-09-18T03:59:19;7.83;;;3.10;;
23250;SDS011;11794;49.730;10.088;2023-09-18T04:01:45;9.63;;;3.73;;
23250;SDS011;11794;49.730;10.088;2023-09-18T04:04:10;8.52;;;3.33;;
23250;SDS011;11794;49.730;10.088;2023-09-18T04:06:36;7.67;;;3.10;;
23250;SDS011;11794;49.730;10.088;2023-09-18T04:09:06;6.75;;;2.83;;
23250;SDS011;11794;49.730;10.088;2023-09-18T04:11:32;7.00;;;3.20;;
23250;SDS011;11794;49.730;10.088;2023-09-18T04:14:01;10.43;;;3.80;;
23250;SDS011;11794;49.730;10.088;2023-09-18T04:16:28;7.53;;;3.67;;
23250;SDS011;11794;49.730;10.088;2023-09-18T04:18:55;9.23;;;3.43;;
23250;SDS011;11794;49.730;10.088;2023-09-18T04:21:21;9.30;;;3.80;;
23250;SDS011;11794;49.730;10.088;2023-09-18T04:23:47;7.03;;;3.17;;
23250;SDS011;11794;49.730;10.088;2023-09-18T04:26:13;7.57;;;3.25;;
23250;SDS011;11794;49.730;10.088;2023-09-18T04:28:44;11.53;;;3.10;;
23250;SDS011;11794;49.730;10.088;2023-09-18T04:31:10;8.53;;;3.17;;
23250;SDS011;11794;49.730;10.088;2023-09-18T04:33:35;8.47;;;3.73;;
23250;SDS011;11794;49.730;10.088;2023-09-18T04:36:01;7.60;;;3.45;;
23250;SDS011;11794;49.730;10.088;2023-09-18T04:38:27;9.30;;;4.10;;
23250;SDS011;11794;49.730;10.088;2023-09-18T04:41:01;9.30;;;3.40;;
23250;SDS011;11794;49.730;10.088;2023-09-18T04:43:27;7.63;;;3.77;;
23250;SDS011;11794;49.730;10.088;2023-09-18T04:45:54;9.32;;;4.18;;
23250;SDS011;11794;49.730;10.088;2023-09-18T04:48:20;7.75;;;3.10;;
23250;SDS011;11794;49.730;10.088;2023-09-18T04:50:46;7.45;;;3.40;;
23250;SDS011;11794;49.730;10.088;2023-09-18T04:53:12;8.70;;;3.97;;
23250;SDS011;11794;49.730;10.088;2023-09-18T04:55:38;9.45;;;3.90;;
23250;SDS011;11794;49.730;10.088;2023-09-18T04:58:03;7.87;;;3.67;;
23250;SDS011;11794;49.730;10.088;2023-09-18T05:00:30;8.68;;;3.70;;
23250;SDS011;11794;49.730;10.088;2023-09-18T05:02:57;8.05;;;3.70;;
23250;SDS011;11794;49.730;10.088;2023-09-18T05:05:26;7.70;;;4.28;;
23250;SDS011;11794;49.730;10.088;2023-09-18T05:07:51;12.43;;;5.57;;
23250;SDS011;11794;49.730;10.088;2023-09-18T05:10:17;9.73;;;4.43;;
23250;SDS011;11794;49.730;10.088;2023-09-18T05:12:43;10.27;;;4.37;;
23250;SDS011;11794;49.730;10.088;2023-09-18T05:15:09;8.95;;;4.28;;
23250;SDS011;11794;49.730;10.088;2023-09-18T05:17:44;8.25;;;3.30;;
23250;SDS011;11794;49.730;10.088;2023-09-18T05:20:12;9.20;;;4.20;;
23250;SDS011;11794;49.730;10.088;2023-09-18T05:22:39;9.30;;;4.20;;
23250;SDS011;11794;49.730;10.088;2023-09-18T05:25:05;15.33;;;10.13;;
23250;SDS011;11794;49.730;10.088;2023-09-18T05:27:31;9.68;;;4.10;;
23250;SDS011;11794;49.730;10.088;2023-09-18T05:29:57;8.95;;;3.90;;
23250;SDS011;11794;49.730;10.088;2023-09-18T05:32:23;9.50;;;4.10;;
23250;SDS011;11794;49.730;10.088;2023-09-18T05:34:48;9.02;;;3.70;;
23250;SDS011;11794;49.730;10.088;2023-09-18T05:37:14;9.23;;;4.00;;
23250;SDS011;11794;49.730;10.088;2023-09-18T05:39:40;8.95;;;3.95;;
23250;SDS011;11794;49.730;10.088;2023-09-18T05:42:06;8.00;;;4.10;;
23250;SDS011;11794;49.730;10.088;2023-09-18T05:44:31;8.80;;;4.20;;
23250;SDS011;11794;49.730;10.088;2023-09-18T05:46:58;7.70;;;3.50;;
23250;SDS011;11794;49.730;10.088;2023-09-18T05:49:23;7.87;;;3.57;;
23250;SDS011;11794;49.730;10.088;2023-09-18T05:51:49;9.30;;;4.03;;
23250;SDS011;11794;49.730;10.088;2023-09-18T05:54:15;11.23;;;4.80;;
23250;SDS011;11794;49.730;10.088;2023-09-18T05:56:40;10.20;;;4.90;;
23250;SDS011;11794;49.730;10.088;2023-09-18T05:59:06;13.02;;;5.78;;
23250;SDS011;11794;49.730;10.088;2023-09-18T06:01:31;14.43;;;5.30;;
23250;SDS011;11794;49.730;10.088;2023-09-18T06:03:57;10.68;;;4.60;;
23250;SDS011;11794;49.730;10.088;2023-09-18T06:06:23;9.33;;;4.40;;
23250;SDS011;11794;49.730;10.088;2023-09-18T06:08:50;10.37;;;4.50;;
23250;SDS011;11794;49.730;10.088;2023-09-18T06:11:18;10.57;;;3.95;;
23250;SDS011;11794;49.730;10.088;2023-09-18T06:13:43;9.60;;;4.47;;
23250;SDS011;11794;49.730;10.088;2023-09-18T06:16:09;9.00;;;3.83;;
23250;SDS011;11794;49.730;10.088;2023-09-18T06:18:35;9.02;;;3.97;;
23250;SDS011;11794;49.730;10.088;2023-09-18T06:21:03;8.00;;;4.13;;
23250;SDS011;11794;49.730;10.088;2023-09-18T06:23:30;8.37;;;4.00;;
23250;SDS011;11794;49.730;10.088;2023-09-18T06:25:56;9.13;;;4.00;;
23250;SDS011;11794;49.730;10.088;2023-09-18T06:28:24;11.02;;;4.47;;
23250;SDS011;11794;49.730;10.088;2023-09-18T06:30:49;10.02;;;4.22;;
23250;SDS011;11794;49.730;10.088;2023-09-18T06:33:15;9.40;;;4.33;;
23250;SDS011;11794;49.730;10.088;2023-09-18T06:35:42;7.88;;;3.35;;
23250;SDS011;11794;49.730;10.088;2023-09-18T06:38:07;8.25;;;4.00;;
23250;SDS011;11794;49.730;10.088;2023-09-18T06:40:36;9.88;;;4.22;;
23250;SDS011;11794;49.730;10.088;2023-09-18T06:43:02;8.90;;;4.30;;
23250;SDS011;11794;49.730;10.088;2023-09-18T06:45:27;10.07;;;4.78;;
23250;SDS011;11794;49.730;10.088;2023-09-18T06:47:53;9.17;;;4.57;;
23250;SDS011;11794;49.730;10.088;2023-09-18T06:50:19;11.73;;;4.47;;
23250;SDS011;11794;49.730;10.088;2023-09-18T06:52:45;9.57;;;4.23;;
23250;SDS011;11794;49.730;10.088;2023-09-18T06:55:11;10.57;;;5.05;;
23250;SDS011;11794;49.730;10.088;2023-09-18T06:57:37;9.85;;;4.25;;
23250;SDS011;11794;49.730;10.088;2023-09-18T07:00:02;11.60;;;4.97;;
23250;SDS011;11794;49.730;10.088;2023-09-18T07:02:30;14.45;;;4.70;;
23250;SDS011;11794;49.730;10.088;2023-09-18T07:04:55;15.10;;;5.30;;
23250;SDS011;11794;49.730;10.088;2023-09-18T07:07:21;8.77;;;3.80;;
23250;SDS011;11794;49.730;10.088;2023-09-18T07:09:50;10.23;;;4.05;;
23250;SDS011;11794;49.730;10.088;2023-09-18T07:12:16;6.90;;;2.90;;
23250;SDS011;11794;49.730;10.088;2023-09-18T07:14:44;8.00;;;3.45;;
23250;SDS011;11794;49.730;10.088;2023-09-18T07:17:10;7.50;;;3.33;;
23250;SDS011;11794;49.730;10.088;2023-09-18T07:19:36;6.70;;;3.10;;
23250;SDS011;11794;49.730;10.088;2023-09-18T07:22:01;7.23;;;3.13;;
23250;SDS011;11794;49.730;10.088;2023-09-18T07:24:27;9.05;;;3.55;;
23250;SDS011;11794;49.730;10.088;2023-09-18T07:26:53;10.57;;;3.33;;
23250;SDS011;11794;49.730;10.088;2023-09-18T07:29:19;6.95;;;3.05;;
23250;SDS011;11794;49.730;10.088;2023-09-18T07:31:45;7.78;;;2.88;;
23250;SDS011;11794;49.730;10.088;2023-09-18T07:34:12;7.30;;;2.60;;
23250;SDS011;11794;49.730;10.088;2023-09-18T07:36:39;7.23;;;3.13;;
23250;SDS011;11794;49.730;10.088;2023-09-18T07:39:05;9.27;;;2.92;;
23250;SDS011;11794;49.730;10.088;2023-09-18T07:41:31;7.10;;;2.85;;
23250;SDS011;11794;49.730;10.088;2023-09-18T07:43:57;7.63;;;2.60;;
23250;SDS011;11794;49.730;10.088;2023-09-18T07:46:24;7.57;;;2.70;;
23250;SDS011;11794;49.730;10.088;2023-09-18T07:48:49;7.73;;;2.83;;
23250;SDS011;11794;49.730;10.088;2023-09-18T07:51:15;8.20;;;2.78;;
23250;SDS011;11794;49.730;10.088;2023-09-18T07:53:41;7.45;;;2.38;;
23250;SDS011;11794;49.730;10.088;2023-09-18T07:56:07;8.20;;;2.83;;
23250;SDS011;11794;49.730;10.088;2023-09-18T07:58:33;7.50;;;2.40;;
23250;SDS011;11794;49.730;10.088;2023-09-18T08:00:59;8.38;;;2.22;;
23250;SDS011;11794;49.730;10.088;2023-09-18T08:03:25;7.40;;;2.50;;
23250;SDS011;11794;49.730;10.088;2023-09-18T08:05:51;9.13;;;2.58;;
23250;SDS011;11794;49.730;10.088;2023-09-18T08:08:18;8.68;;;2.58;;
23250;SDS011;11794;49.730;10.088;2023-09-18T08:10:45;7.88;;;3.20;;
23250;SDS011;11794;49.730;10.088;2023-09-18T08:13:11;7.50;;;2.55;;
23250;SDS011;11794;49.730;10.088;2023-09-18T08:15:38;10.48;;;2.80;;
23250;SDS011;11794;49.730;10.088;2023-09-18T08:18:03;7.40;;;2.53;;
23250;SDS011;11794;49.730;10.088;2023-09-18T08:20:29;8.20;;;2.78;;
23250;SDS011;11794;49.730;10.088;2023-09-18T08:22:55;9.02;;;2.58;;
23250;SDS011;11794;49.730;10.088;2023-09-18T08:25:21;8.75;;;2.45;;
23250;SDS011;11794;49.730;10.088;2023-09-18T08:27:47;7.57;;;2.30;;
23250;SDS011;11794;49.730;10.088;2023-09-18T08:30:13;7.68;;;2.30;;
23250;SDS011;11794;49.730;10.088;2023-09-18T08:32:41;8.50;;;2.30;;
23250;SDS011;11794;49.730;10.088;2023-09-18T08:35:07;6.80;;;2.10;;
23250;SDS011;11794;49.730;10.088;2023-09-18T08:37:34;9.38;;;2.00;;
23250;SDS011;11794;49.730;10.088;2023-09-18T08:39:59;8.97;;;2.47;;
23250;SDS011;11794;49.730;10.088;2023-09-18T08:42:25;6.72;;;1.95;;
23250;SDS011;11794;49.730;10.088;2023-09-18T08:44:55;6.65;;;1.92;;
23250;SDS011;11794;49.730;10.088;2023-09-18T08:47:23;7.78;;;1.92;;
23250;SDS011;11794;49.730;10.088;2023-09-18T08:49:49;6.75;;;1.88;;
23250;SDS011;11794;49.730;10.088;2023-09-18T08:52:18;7.80;;;1.95;;
23250;SDS011;11794;49.730;10.088;2023-09-18T08:54:44;4.85;;;1.35;;
23250;SDS011;11794;49.730;10.088;2023-09-18T08:57:11;5.35;;;1.40;;
23250;SDS011;11794;49.730;10.088;2023-09-18T08:59:37;6.50;;;1.67;;
23250;SDS011;11794;49.730;10.088;2023-09-18T09:02:05;5.82;;;1.30;;
23250;SDS011;11794;49.730;10.088;2023-09-18T09:04:31;6.22;;;1.30;;
23250;SDS011;11794;49.730;10.088;2023-09-18T09:06:56;6.43;;;1.23;;
23250;SDS011;11794;49.730;10.088;2023-09-18T09:09:24;5.82;;;1.42;;
23250;SDS011;11794;49.730;10.088;2023-09-18T09:11:51;3.83;;;0.80;;
23250;SDS011;11794;49.730;10.088;2023-09-18T09:14:17;4.57;;;0.93;;
23250;SDS011;11794;49.730;10.088;2023-09-18T09:16:46;6.47;;;1.13;;
23250;SDS011;11794;49.730;10.088;2023-09-18T09:19:16;5.63;;;1.00;;
23250;SDS011;11794;49.730;10.088;2023-09-18T09:21:43;6.22;;;1.38;;
23250;SDS011;11794;49.730;10.088;2023-09-18T09:24:09;7.25;;;1.00;;
23250;SDS011;11794;49.730;10.088;2023-09-18T09:26:39;5.40;;;1.05;;
23250;SDS011;11794;49.730;10.088;2023-09-18T09:29:16;7.25;;;1.38;;
23250;SDS011;11794;49.730;10.088;2023-09-18T09:31:43;8.98;;;1.40;;
23250;SDS011;11794;49.730;10.088;2023-09-18T09:34:10;5.05;;;0.80;;
23250;SDS011;11794;49.730;10.088;2023-09-18T09:36:36;5.33;;;1.13;;
23250;SDS011;11794;49.730;10.088;2023-09-18T09:39:02;6.93;;;1.15;;
23250;SDS011;11794;49.730;10.088;2023-09-18T09:41:30;4.15;;;0.80;;
23250;SDS011;11794;49.730;10.088;2023-09-18T09:43:56;9.88;;;1.20;;
23250;SDS011;11794;49.730;10.088;2023-09-18T09:46:23;6.00;;;1.00;;
23250;SDS011;11794;49.730;10.088;2023-09-18T09:49:03;6.57;;;1.17;;
23250;SDS011;11794;49.730;10.088;2023-09-18T09:51:29;4.77;;;0.83;;
23250;SDS011;11794;49.730;10.088;2023-09-18T09:53:55;6.03;;;0.83;;
23250;SDS011;11794;49.730;10.088;2023-09-18T09:56:39;3.58;;;0.70;;
23250;SDS011;11794;49.730;10.088;2023-09-18T09:59:16;3.00;;;0.63;;
23250;SDS011;11794;49.730;10.088;2023-09-18T10:01:45;4.97;;;0.88;;
23250;SDS011;11794;49.730;10.088;2023-09-18T10:04:15;5.03;;;0.73;;
23250;SDS011;11794;49.730;10.088;2023-09-18T10:06:43;4.50;;;0.75;;
23250;SDS011;11794;49.730;10.088;2023-09-18T10:09:11;4.05;;;0.75;;
23250;SDS011;11794;49.730;10.088;2023-09-18T10:11:40;8.32;;;0.73;;
23250;SDS011;11794;49.730;10.088;2023-09-18T10:14:12;4.50;;;0.70;;
23250;SDS011;11794;49.730;10.088;2023-09-18T10:16:41;3.93;;;0.70;;
23250;SDS011;11794;49.730;10.088;2023-09-18T10:19:27;4.73;;;0.67;;
23250;SDS011;11794;49.730;10.088;2023-09-18T10:24:36;4.88;;;0.70;;
23250;SDS011;11794;49.730;10.088;2023-09-18T10:27:04;4.25;;;0.82;;
23250;SDS011;11794;49.730;10.088;2023-09-18T10:29:32;5.55;;;0.90;;
23250;SDS011;11794;49.730;10.088;2023-09-18T10:31:59;5.00;;;0.90;;
23250;SDS011;11794;49.730;10.088;2023-09-18T10:34:29;5.07;;;0.90;;
23250;SDS011;11794;49.730;10.088;2023-09-18T10:36:57;5.90;;;0.80;;
23250;SDS011;11794;49.730;10.088;2023-09-18T10:39:25;5.20;;;0.60;;
23250;SDS011;11794;49.730;10.088;2023-09-18T10:41:53;4.37;;;0.60;;
23250;SDS011;11794;49.730;10.088;2023-09-18T10:44:22;4.43;;;0.60;;
23250;SDS011;11794;49.730;10.088;2023-09-18T10:46:48;5.93;;;0.80;;
23250;SDS011;11794;49.730;10.088;2023-09-18T10:49:16;3.85;;;0.68;;
23250;SDS011;11794;49.730;10.088;2023-09-18T10:51:43;3.00;;;0.50;;
23250;SDS011;11794;49.730;10.088;2023-09-18T10:54:09;3.17;;;0.60;;
23250;SDS011;11794;49.730;10.088;2023-09-18T10:56:35;5.75;;;0.70;;
23250;SDS011;11794;49.730;10.088;2023-09-18T10:59:02;4.53;;;0.70;;
23250;SDS011;11794;49.730;10.088;2023-09-18T11:01:30;4.65;;;0.73;;
23250;SDS011;11794;49.730;10.088;2023-09-18T11:04:03;5.65;;;0.63;;
23250;SDS011;11794;49.730;10.088;2023-09-18T11:06:59;4.72;;;0.95;;
23250;SDS011;11794;49.730;10.088;2023-09-18T11:09:21;4.38;;;0.40;;
23250;SDS011;11794;49.730;10.088;2023-09-18T11:12:02;3.93;;;0.60;;
23250;SDS011;11794;49.730;10.088;2023-09-18T11:20:01;4.18;;;0.80;;
23250;SDS011;11794;49.730;10.088;2023-09-18T11:23:10;4.13;;;0.90;;
23250;SDS011;11794;49.730;10.088;2023-09-18T11:25:42;4.45;;;0.70;;
23250;SDS011;11794;49.730;10.088;2023-09-18T11:28:24;4.10;;;0.50;;
23250;SDS011;11794;49.730;10.088;2023-09-18T11:30:52;2.42;;;0.40;;
23250;SDS011;11794;49.730;10.088;2023-09-18T11:33:56;7.15;;;1.00;;
23250;SDS011;11794;49.730;10.088;2023-09-18T11:38:54;5.03;;;0.67;;
23250;SDS011;11794;49.730;10.088;2023-09-18T11:41:24;2.57;;;0.30;;
23250;SDS011;11794;49.730;10.088;2023-09-18T11:46:50;3.55;;;0.90;;
23250;SDS011;11794;49.730;10.088;2023-09-18T11:49:20;5.15;;;0.60;;
23250;SDS011;11794;49.730;10.088;2023-09-18T11:51:53;2.45;;;0.45;;
23250;SDS011;11794;49.730;10.088;2023-09-18T11:54:19;4.75;;;0.73;;
23250;SDS011;11794;49.730;10.088;2023-09-18T11:56:46;3.85;;;0.60;;
23250;SDS011;11794;49.730;10.088;2023-09-18T11:59:11;4.30;;;0.50;;
23250;SDS011;11794;49.730;10.088;2023-09-18T12:01:38;5.00;;;0.50;;
23250;SDS011;11794;49.730;10.088;2023-09-18T12:04:06;3.65;;;0.75;;
23250;SDS011;11794;49.730;10.088;2023-09-18T12:06:36;5.25;;;0.70;;
23250;SDS011;11794;49.730;10.088;2023-09-18T12:09:05;3.88;;;0.40;;
23250;SDS011;11794;49.730;10.088;2023-09-18T12:11:35;3.42;;;0.60;;
23250;SDS011;11794;49.730;10.088;2023-09-18T12:14:01;7.70;;;0.73;;
23250;SDS011;11794;49.730;10.088;2023-09-18T12:16:30;4.78;;;0.88;;
23250;SDS011;11794;49.730;10.088;2023-09-18T12:19:03;2.90;;;0.52;;
23250;SDS011;11794;49.730;10.088;2023-09-18T12:21:31;4.33;;;0.80;;
23250;SDS011;11794;49.730;10.088;2023-09-18T12:23:56;4.27;;;0.90;;
23250;SDS011;11794;49.730;10.088;2023-09-18T12:26:22;4.33;;;0.57;;
23250;SDS011;11794;49.730;10.088;2023-09-18T12:28:49;4.03;;;1.05;;
23250;SDS011;11794;49.730;10.088;2023-09-18T12:31:15;2.90;;;0.55;;
23250;SDS011;11794;49.730;10.088;2023-09-18T12:33:41;3.93;;;0.53;;
23250;SDS011;11794;49.730;10.088;2023-09-18T12:36:09;3.08;;;0.40;;
23250;SDS011;11794;49.730;10.088;2023-09-18T12:38:35;4.57;;;0.70;;
23250;SDS011;11794;49.730;10.088;2023-09-18T12:41:02;3.17;;;0.50;;
23250;SDS011;11794;49.730;10.088;2023-09-18T12:43:38;3.45;;;0.52;;
23250;SDS011;11794;49.730;10.088;2023-09-18T12:46:06;2.67;;;0.60;;
23250;SDS011;11794;49.730;10.088;2023-09-18T12:48:36;3.60;;;0.68;;
23250;SDS011;11794;49.730;10.088;2023-09-18T12:51:06;2.87;;;0.37;;
23250;SDS011;11794;49.730;10.088;2023-09-18T12:53:32;3.97;;;0.87;;
23250;SDS011;11794;49.730;10.088;2023-09-18T12:56:13;4.13;;;0.30;;
23250;SDS011;11794;49.730;10.088;2023-09-18T12:58:40;4.95;;;1.17;;
23250;SDS011;11794;49.730;10.088;2023-09-18T13:01:07;3.85;;;0.50;;
23250;SDS011;11794;49.730;10.088;2023-09-18T13:03:44;2.80;;;0.35;;
23250;SDS011;11794;49.730;10.088;2023-09-18T13:06:12;4.57;;;0.43;;
23250;SDS011;11794;49.730;10.088;2023-09-18T13:08:42;2.78;;;0.30;;
23250;SDS011;11794;49.730;10.088;2023-09-18T13:11:08;3.70;;;0.50;;
23250;SDS011;11794;49.730;10.088;2023-09-18T13:13:35;2.53;;;0.40;;
23250;SDS011;11794;49.730;10.088;2023-09-18T13:16:04;2.87;;;0.50;;
23250;SDS011;11794;49.730;10.088;2023-09-18T13:18:30;3.28;;;0.40;;
23250;SDS011;11794;49.730;10.088;2023-09-18T13:20:56;2.57;;;0.40;;
23250;SDS011;11794;49.730;10.088;2023-09-18T13:23:29;4.80;;;0.32;;
23250;SDS011;11794;49.730;10.088;2023-09-18T13:25:58;2.75;;;0.30;;
23250;SDS011;11794;49.730;10.088;2023-09-18T13:28:28;1.83;;;0.30;;
23250;SDS011;11794;49.730;10.088;2023-09-18T13:30:56;3.70;;;0.40;;
23250;SDS011;11794;49.730;10.088;2023-09-18T13:33:22;2.65;;;0.52;;
23250;SDS011;11794;49.730;10.088;2023-09-18T13:35:48;3.33;;;0.70;;
23250;SDS011;11794;49.730;10.088;2023-09-18T13:38:14;2.63;;;0.40;;
23250;SDS011;11794;49.730;10.088;2023-09-18T13:40:40;3.90;;;0.40;;
23250;SDS011;11794;49.730;10.088;2023-09-18T13:43:07;2.00;;;0.30;;
23250;SDS011;11794;49.730;10.088;2023-09-18T13:45:33;1.50;;;0.20;;
23250;SDS011;11794;49.730;10.088;2023-09-18T13:48:06;3.38;;;0.40;;
23250;SDS011;11794;49.730;10.088;2023-09-18T13:50:32;2.05;;;0.32;;
23250;SDS011;11794;49.730;10.088;2023-09-18T13:52:58;2.72;;;0.45;;
23250;SDS011;11794;49.730;10.088;2023-09-18T13:55:24;1.77;;;0.20;;
23250;SDS011;11794;49.730;10.088;2023-09-18T13:57:50;2.77;;;0.40;;
23250;SDS011;11794;49.730;10.088;2023-09-18T14:00:16;2.53;;;0.30;;
23250;SDS011;11794;49.730;10.088;2023-09-18T14:02:42;2.22;;;0.30;;
23250;SDS011;11794;49.730;10.088;2023-09-18T14:05:08;2.17;;;0.30;;
23250;SDS011;11794;49.730;10.088;2023-09-18T14:07:34;2.05;;;0.40;;
23250;SDS011;11794;49.730;10.088;2023-09-18T14:10:00;3.45;;;0.60;;
23250;SDS011;11794;49.730;10.088;2023-09-18T14:12:29;2.25;;;0.20;;
23250;SDS011;11794;49.730;10.088;2023-09-18T14:14:55;2.40;;;0.30;;
23250;SDS011;11794;49.730;10.088;2023-09-18T14:17:21;2.53;;;0.23;;
23250;SDS011;11794;49.730;10.088;2023-09-18T14:19:47;1.58;;;0.22;;
23250;SDS011;11794;49.730;10.088;2023-09-18T14:22:13;1.25;;;0.20;;
23250;SDS011;11794;49.730;10.088;2023-09-18T14:24:39;1.50;;;0.20;;
23250;SDS011;11794;49.730;10.088;2023-09-18T14:27:05;1.70;;;0.30;;
23250;SDS011;11794;49.730;10.088;2023-09-18T14:29:31;2.45;;;0.30;;
23250;SDS011;11794;49.730;10.088;2023-09-18T14:31:57;2.90;;;0.37;;
23250;SDS011;11794;49.730;10.088;2023-09-18T14:34:22;3.40;;;0.40;;
23250;SDS011;11794;49.730;10.088;2023-09-18T14:36:48;2.67;;;0.30;;
23250;SDS011;11794;49.730;10.088;2023-09-18T14:39:13;2.42;;;0.40;;
23250;SDS011;11794;49.730;10.088;2023-09-18T14:41:39;2.30;;;0.30;;
23250;SDS011;11794;49.730;10.088;2023-09-18T14:44:06;3.20;;;0.60;;
23250;SDS011;11794;49.730;10.088;2023-09-18T14:46:33;2.25;;;0.30;;
23250;SDS011;11794;49.730;10.088;2023-09-18T14:48:59;3.45;;;0.30;;